Time;durP1;ratioP1;P1;durP2;ratioP2;P2;SDS_P1;SDS_P2;PMS_P1;PMS_P2;Temp;Humidity;BMP_temperature;BMP_pressure;BME280_temperature;BME280_humidity;BME280_pressure;Samples;Min_cycle;Max_cycle;Signal;HPM_P1;HPM_P2
2023/05/30 00:01:20;;;;;;;8.93;3.20;;;20.70;77.80;;;;;;5062742;28;20055;-63
2023/05/30 00:03:46;;;;;;;11.35;3.20;;;20.70;77.60;;;;;;5074030;28;20040;-60
2023/05/30 00:06:13;;;;;;;6.22;2.85;;;21.00;74.50;;;;;;5065910;28;20075;-62
2023/05/30 00:08:39;;;;;;;6.90;2.30;;;21.00;77.80;;;;;;5070625;28;20044;-60
2023/05/30 00:11:06;;;;;;;7.88;2.88;;;20.80;77.80;;;;;;5075626;28;20044;-60
2023/05/30 00:13:32;;;;;;;7.50;2.60;;;20.50;77.50;;;;;;5061571;28;20123;-59
2023/05/30 00:15:59;;;;;;;11.82;2.90;;;20.80;77.70;;;;;;5075377;28;20055;-60
2023/05/30 00:18:25;;;;;;;9.40;2.92;;;20.70;77.70;;;;;;5072425;28;20102;-62
2023/05/30 00:20:51;;;;;;;6.07;2.63;;;20.70;77.70;;;;;;5059620;28;20052;-60
2023/05/30 00:23:17;;;;;;;6.32;2.40;;;20.80;77.70;;;;;;5061289;28;20114;-69
2023/05/30 00:25:45;;;;;;;8.15;2.70;;;20.60;77.70;;;;;;5063211;28;20056;-60
2023/05/30 00:28:11;;;;;;;5.95;2.60;;;20.80;77.70;;;;;;5072391;28;20084;-60
2023/05/30 00:30:37;;;;;;;10.02;2.80;;;20.90;77.80;;;;;;5074425;28;20098;-60
2023/05/30 00:33:03;;;;;;;7.50;2.30;;;20.70;74.70;;;;;;5056200;28;20045;-63
2023/05/30 00:35:29;;;;;;;7.68;2.55;;;20.80;77.80;;;;;;5058821;28;20367;-63
2023/05/30 00:37:55;;;;;;;6.78;2.78;;;20.60;77.40;;;;;;5069327;28;20487;-60
2023/05/30 00:40:21;;;;;;;10.00;3.13;;;20.60;77.60;;;;;;5070983;28;20055;-60
2023/05/30 00:42:47;;;;;;;7.95;3.00;;;20.70;77.70;;;;;;5074778;28;20052;-60
2023/05/30 00:45:12;;;;;;;8.63;2.70;;;20.80;77.70;;;;;;5076085;28;20436;-61
2023/05/30 00:47:38;;;;;;;8.57;2.97;;;20.70;77.70;;;;;;5074774;28;20414;-60
2023/05/30 00:50:06;;;;;;;8.00;2.92;;;20.40;74.60;;;;;;5062655;28;20037;-66
2023/05/30 00:52:32;;;;;;;8.05;2.28;;;20.40;77.60;;;;;;5087626;28;20080;-61
2023/05/30 00:55:02;;;;;;;7.65;3.38;;;20.40;77.60;;;;;;5088009;28;20490;-61
2023/05/30 00:57:28;;;;;;;9.45;3.10;;;;;;;;;;5056283;28;20418;-59
2023/05/30 00:59:54;;;;;;;7.75;3.08;;;20.60;77.60;;;;;;5064119;28;20045;-59
2023/05/30 01:02:19;;;;;;;6.93;2.50;;;20.60;77.80;;;;;;5050347;28;20037;-62
2023/05/30 01:04:48;;;;;;;7.18;3.22;;;20.80;77.90;;;;;;5058499;28;20043;-59
2023/05/30 01:07:14;;;;;;;8.43;3.22;;;20.80;77.80;;;;;;5072457;28;20060;-62
2023/05/30 01:09:41;;;;;;;6.65;2.58;;;;;;;;;;5054909;28;20045;-67
2023/05/30 01:12:17;;;;;;;8.48;3.15;;;20.80;77.90;;;;;;5064633;28;20037;-67
2023/05/30 01:14:57;;;;;;;7.38;3.08;;;20.80;77.80;;;;;;5067643;28;20049;-59
2023/05/30 01:17:45;;;;;;;7.63;3.08;;;20.60;77.70;;;;;;5072829;28;20080;-60
2023/05/30 01:20:17;;;;;;;6.43;2.70;;;20.70;78.00;;;;;;5069040;28;20043;-60
2023/05/30 01:22:55;;;;;;;9.15;2.60;;;20.70;77.80;;;;;;5069781;28;20061;-60
2023/05/30 01:25:59;;;;;;;6.88;2.70;;;20.60;77.80;;;;;;5055286;28;20053;-59
2023/05/30 01:28:28;;;;;;;8.68;2.60;;;20.60;77.80;;;;;;5061400;28;20429;-62
2023/05/30 01:30:54;;;;;;;7.90;3.17;;;;;;;;;;5054155;28;20055;-68
2023/05/30 01:33:20;;;;;;;7.35;2.95;;;20.50;77.80;;;;;;5053653;28;20425;-68
2023/05/30 01:35:46;;;;;;;7.25;3.30;;;20.50;77.70;;;;;;5065189;28;20116;-69
2023/05/30 01:38:13;;;;;;;11.35;2.50;;;20.70;78.00;;;;;;5054501;28;20106;-64
2023/05/30 01:40:39;;;;;;;9.63;2.90;;;;;;;;;;5053925;28;20467;-60
2023/05/30 01:43:15;;;;;;;6.60;2.83;;;20.60;77.80;;;;;;5054582;28;20111;-59
2023/05/30 01:46:01;;;;;;;7.28;2.90;;;20.80;77.90;;;;;;5055200;28;20040;-60
2023/05/30 01:48:51;;;;;;;5.63;2.22;;;20.50;77.80;;;;;;5056663;28;20099;-59
2023/05/30 01:51:22;;;;;;;7.65;3.08;;;20.40;77.80;;;;;;5071651;28;20052;-60
2023/05/30 01:53:50;;;;;;;8.80;3.35;;;20.40;77.80;;;;;;5073422;28;20041;-61
2023/05/30 01:56:15;;;;;;;10.20;2.90;;;20.50;77.80;;;;;;5073242;28;20047;-59
2023/05/30 01:58:41;;;;;;;7.88;3.03;;;20.40;77.80;;;;;;5054232;28;20382;-60
2023/05/30 02:01:07;;;;;;;9.38;3.10;;;20.80;77.90;;;;;;5062150;28;20494;-65
2023/05/30 02:03:33;;;;;;;5.70;2.60;;;20.60;77.90;;;;;;5066554;28;20127;-66
2023/05/30 02:05:59;;;;;;;5.13;2.58;;;20.70;78.00;;;;;;5064453;28;20133;-66
2023/05/30 02:08:25;;;;;;;7.45;2.85;;;20.60;77.90;;;;;;5060211;28;20127;-60
2023/05/30 02:10:51;;;;;;;7.15;2.75;;;20.20;77.60;;;;;;5068757;28;20148;-59
2023/05/30 02:13:16;;;;;;;7.07;2.40;;;20.50;77.90;;;;;;5058455;28;20039;-59
2023/05/30 02:15:42;;;;;;;8.30;2.92;;;20.50;77.90;;;;;;5067509;28;20403;-63
2023/05/30 02:18:08;;;;;;;8.10;2.90;;;20.40;77.90;;;;;;5068818;28;20160;-59
2023/05/30 02:20:34;;;;;;;8.70;2.92;;;20.30;77.90;;;;;;5063784;28;20041;-63
2023/05/30 02:23:00;;;;;;;7.65;2.70;;;;;;;;;;5063605;28;20067;-68
2023/05/30 02:25:26;;;;;;;7.05;2.63;;;20.50;77.90;;;;;;5065329;28;20045;-70
2023/05/30 02:27:52;;;;;;;6.60;2.50;;;20.70;78.00;;;;;;5062434;28;20129;-61
2023/05/30 02:30:17;;;;;;;7.28;2.83;;;20.60;78.00;;;;;;5054847;28;20525;-59
2023/05/30 02:32:43;;;;;;;6.78;2.70;;;20.50;77.90;;;;;;5069929;28;20044;-64
2023/05/30 02:35:10;;;;;;;8.02;2.60;;;20.60;78.00;;;;;;5073231;28;20136;-59
2023/05/30 02:37:36;;;;;;;10.80;3.13;;;;;;;;;;5073485;28;20115;-65
2023/05/30 02:40:02;;;;;;;7.75;2.50;;;20.70;78.00;;;;;;5066208;28;20044;-60
2023/05/30 02:42:28;;;;;;;6.03;2.60;;;20.50;78.00;;;;;;5061090;28;20072;-59
2023/05/30 02:44:53;;;;;;;6.10;2.83;;;20.70;78.10;;;;;;5072951;28;20113;-70
2023/05/30 02:47:19;;;;;;;8.63;2.78;;;20.40;75.20;;;;;;5065462;28;20041;-60
2023/05/30 02:49:45;;;;;;;7.22;2.97;;;20.50;78.00;;;;;;5053628;28;20053;-59
2023/05/30 02:52:11;;;;;;;6.65;2.72;;;20.70;78.20;;;;;;5064247;28;20036;-59
2023/05/30 02:54:38;;;;;;;7.20;2.58;;;;;;;;;;5065959;28;20401;-61
2023/05/30 02:57:05;;;;;;;10.23;3.28;;;20.50;78.10;;;;;;5069112;28;20074;-59
2023/05/30 02:59:30;;;;;;;7.50;2.55;;;20.40;78.00;;;;;;5062009;28;20044;-59
2023/05/30 03:01:56;;;;;;;7.60;2.80;;;20.50;78.00;;;;;;5064037;28;20041;-60
2023/05/30 03:04:22;;;;;;;6.03;2.25;;;;;;;;;;5052985;28;20110;-62
2023/05/30 03:06:49;;;;;;;7.78;3.00;;;20.50;76.60;;;;;;5053367;28;20049;-64
2023/05/30 03:09:15;;;;;;;6.63;2.70;;;20.50;78.10;;;;;;5052696;28;20080;-62
2023/05/30 03:11:41;;;;;;;8.25;2.80;;;20.60;78.20;;;;;;5053380;28;20068;-60
2023/05/30 03:14:07;;;;;;;7.72;2.58;;;20.40;77.20;;;;;;5055196;28;20036;-60
2023/05/30 03:16:32;;;;;;;6.95;2.85;;;20.50;78.20;;;;;;5073368;28;20088;-59
2023/05/30 03:18:58;;;;;;;7.28;3.00;;;20.50;78.10;;;;;;5054910;28;20052;-65
2023/05/30 03:21:24;;;;;;;7.50;2.88;;;20.30;78.10;;;;;;5061617;28;20154;-63
2023/05/30 03:23:51;;;;;;;7.50;2.90;;;20.50;78.10;;;;;;5056081;28;20414;-60
2023/05/30 03:26:17;;;;;;;7.32;2.72;;;20.50;78.20;;;;;;5052723;28;20491;-59
2023/05/30 03:28:43;;;;;;;9.35;2.65;;;;;;;;;;5064866;28;20056;-62
2023/05/30 03:31:09;;;;;;;7.80;2.38;;;20.60;78.40;;;;;;5053198;28;20041;-63
2023/05/30 03:33:35;;;;;;;8.00;2.85;;;20.20;78.10;;;;;;5052467;28;20123;-61
2023/05/30 03:36:01;;;;;;;7.72;2.75;;;20.40;78.20;;;;;;5067308;28;20546;-59
2023/05/30 03:38:26;;;;;;;8.38;2.78;;;20.00;78.10;;;;;;5053044;28;20399;-58
2023/05/30 03:40:52;;;;;;;6.50;2.22;;;20.30;78.20;;;;;;5053753;28;20041;-62
2023/05/30 03:43:18;;;;;;;8.07;2.85;;;20.60;78.40;;;;;;5056813;28;20045;-64
2023/05/30 03:45:44;;;;;;;6.90;2.58;;;20.70;78.50;;;;;;5069029;28;20552;-63
2023/05/30 03:48:09;;;;;;;7.72;2.58;;;20.50;78.40;;;;;;5072660;28;20044;-59
2023/05/30 03:50:36;;;;;;;6.53;2.83;;;20.10;78.20;;;;;;5071840;28;20036;-68
2023/05/30 03:53:02;;;;;;;7.65;3.10;;;;;;;;;;5072095;28;20045;-65
2023/05/30 03:55:27;;;;;;;7.20;2.65;;;20.60;78.60;;;;;;5058223;28;20487;-60
2023/05/30 03:57:53;;;;;;;11.68;2.88;;;20.20;78.30;;;;;;5072531;28;20098;-59
2023/05/30 04:00:20;;;;;;;8.18;2.70;;;;;;;;;;5065716;28;20040;-69
2023/05/30 04:02:46;;;;;;;6.68;2.58;;;;;;;;;;5068968;28;20083;-69
2023/05/30 04:05:11;;;;;;;7.65;2.80;;;20.50;78.50;;;;;;5060052;28;20086;-69
2023/05/30 04:07:38;;;;;;;7.35;2.50;;;20.30;78.40;;;;;;5059837;28;20044;-69
2023/05/30 04:10:04;;;;;;;6.35;2.28;;;20.10;78.40;;;;;;5072298;28;20056;-69
2023/05/30 04:12:30;;;;;;;7.03;3.00;;;20.50;76.60;;;;;;5071340;28;20052;-70
2023/05/30 04:14:55;;;;;;;5.55;2.42;;;20.60;78.60;;;;;;5053416;28;20045;-70
2023/05/30 04:17:21;;;;;;;7.00;2.70;;;20.50;78.60;;;;;;5061081;28;20082;-60
2023/05/30 04:19:47;;;;;;;8.55;2.80;;;20.50;78.70;;;;;;5072645;28;20083;-60
2023/05/30 04:22:13;;;;;;;8.50;3.35;;;20.60;78.70;;;;;;5058778;28;20450;-59
2023/05/30 04:24:39;;;;;;;6.80;2.83;;;20.40;78.80;;;;;;5059572;28;20044;-60
2023/05/30 04:27:05;;;;;;;8.85;2.65;;;20.30;78.60;;;;;;5056826;28;20041;-60
2023/05/30 04:29:31;;;;;;;8.23;3.00;;;20.40;75.40;;;;;;5061007;28;20474;-60
2023/05/30 04:31:57;;;;;;;9.57;2.42;;;20.40;78.60;;;;;;5066548;28;20045;-62
2023/05/30 04:34:24;;;;;;;5.85;2.30;;;20.60;75.90;;;;;;5062970;28;20128;-59
2023/05/30 04:36:52;;;;;;;8.88;3.17;;;20.50;78.90;;;;;;5064919;28;20041;-59
2023/05/30 04:39:17;;;;;;;6.43;2.70;;;20.00;78.60;;;;;;5076045;28;20116;-60
2023/05/30 04:41:43;;;;;;;8.48;2.70;;;20.50;78.90;;;;;;5073302;28;20123;-60
2023/05/30 04:44:09;;;;;;;6.38;2.40;;;;;;;;;;5072012;28;20800;-67
2023/05/30 04:46:36;;;;;;;8.40;2.90;;;20.10;78.70;;;;;;5063583;28;20363;-68
2023/05/30 04:49:02;;;;;;;7.10;2.67;;;20.60;79.10;;;;;;5068918;28;20041;-59
2023/05/30 04:51:27;;;;;;;7.50;2.50;;;20.60;79.10;;;;;;5071997;28;20398;-59
2023/05/30 04:53:53;;;;;;;11.48;3.00;;;20.50;79.10;;;;;;5068193;28;20139;-61
2023/05/30 04:56:22;;;;;;;7.13;2.33;;;20.50;75.60;;;;;;5062674;28;20032;-68
2023/05/30 04:58:49;;;;;;;10.48;3.10;;;20.40;79.10;;;;;;5059717;28;20102;-62
2023/05/30 05:01:15;;;;;;;7.95;2.80;;;20.30;78.90;;;;;;5066295;28;20072;-59
2023/05/30 05:03:41;;;;;;;7.03;2.40;;;20.40;79.00;;;;;;5071955;28;20052;-71
2023/05/30 05:06:07;;;;;;;7.85;2.65;;;20.70;76.90;;;;;;5074901;28;20481;-60
2023/05/30 05:08:36;;;;;;;7.20;2.20;;;20.40;77.70;;;;;;5072474;28;20464;-60
2023/05/30 05:11:03;;;;;;;7.55;2.60;;;20.20;75.30;;;;;;5060865;28;20040;-62
2023/05/30 05:13:29;;;;;;;7.35;2.88;;;20.40;79.20;;;;;;5063807;28;20427;-70
2023/05/30 05:15:56;;;;;;;7.72;2.85;;;20.30;79.00;;;;;;5055306;28;20040;-66
2023/05/30 05:18:22;;;;;;;6.57;2.40;;;20.00;79.10;;;;;;5071973;28;20233;-60
2023/05/30 05:20:48;;;;;;;5.45;2.13;;;20.30;77.60;;;;;;5066916;28;20102;-60
2023/05/30 05:23:14;;;;;;;6.00;2.33;;;20.50;79.40;;;;;;5055510;28;20049;-59
2023/05/30 05:25:40;;;;;;;5.07;2.35;;;20.40;79.30;;;;;;5056999;28;20037;-59
2023/05/30 05:28:06;;;;;;;5.80;2.60;;;20.30;79.50;;;;;;5072459;28;20048;-59
2023/05/30 05:30:31;;;;;;;6.30;2.50;;;20.30;79.40;;;;;;5057438;28;20116;-71
2023/05/30 05:32:57;;;;;;;5.90;2.10;;;20.50;79.40;;;;;;5065367;28;20187;-61
2023/05/30 05:35:23;;;;;;;8.05;2.92;;;20.50;79.50;;;;;;5073985;28;20041;-59
2023/05/30 05:37:49;;;;;;;5.70;2.13;;;20.50;79.50;;;;;;5073441;28;20044;-59
2023/05/30 05:40:15;;;;;;;6.53;2.30;;;20.20;79.50;;;;;;5073466;28;20469;-72
2023/05/30 05:42:45;;;;;;;5.68;2.65;;;;;;;;;;5061823;28;20044;-62
2023/05/30 05:45:11;;;;;;;8.50;2.42;;;;;;;;;;5053962;28;20052;-66
2023/05/30 05:47:37;;;;;;;7.10;2.58;;;20.50;79.60;;;;;;5055668;28;20120;-72
2023/05/30 05:50:03;;;;;;;5.43;2.10;;;20.50;79.80;;;;;;5060824;28;20550;-71
2023/05/30 05:52:29;;;;;;;7.70;2.70;;;;;;;;;;5063343;28;20051;-70
2023/05/30 05:54:54;;;;;;;7.22;2.10;;;20.50;79.70;;;;;;5069751;28;20075;-70
2023/05/30 05:57:20;;;;;;;4.88;1.85;;;20.50;79.70;;;;;;5069637;28;20075;-66
2023/05/30 05:59:46;;;;;;;4.93;1.98;;;20.60;79.80;;;;;;5074303;28;20106;-59
2023/05/30 06:02:12;;;;;;;6.28;2.20;;;20.60;79.70;;;;;;5069065;28;20044;-66
2023/05/30 06:04:38;;;;;;;6.82;2.28;;;20.50;79.70;;;;;;5060660;28;20125;-72
2023/05/30 06:07:04;;;;;;;5.80;2.00;;;20.60;79.80;;;;;;5061306;28;20562;-71
2023/05/30 06:09:30;;;;;;;6.53;2.38;;;20.60;79.50;;;;;;5065486;28;20051;-65
2023/05/30 06:12:00;;;;;;;5.75;2.42;;;20.90;79.80;;;;;;5073792;28;20059;-70
2023/05/30 06:14:26;;;;;;;5.70;2.50;;;20.50;79.60;;;;;;5060584;28;20041;-70
2023/05/30 06:16:52;;;;;;;7.07;2.85;;;20.70;79.80;;;;;;5063128;28;20052;-66
2023/05/30 06:19:18;;;;;;;6.28;2.20;;;20.70;79.70;;;;;;5072318;28;20036;-68
2023/05/30 06:21:44;;;;;;;5.40;2.00;;;20.70;79.80;;;;;;5060991;28;20099;-68
2023/05/30 06:24:10;;;;;;;4.22;2.00;;;;;;;;;;5068375;28;20068;-70
2023/05/30 06:26:36;;;;;;;7.70;2.63;;;20.50;79.80;;;;;;5063204;28;20071;-64
2023/05/30 06:29:02;;;;;;;6.07;2.40;;;20.50;79.80;;;;;;5067618;28;20459;-71
2023/05/30 06:31:28;;;;;;;8.13;2.83;;;;;;;;;;5069806;28;20044;-62
2023/05/30 06:33:54;;;;;;;5.32;2.10;;;20.80;79.90;;;;;;5064349;28;20048;-69
2023/05/30 06:36:19;;;;;;;8.48;2.38;;;20.80;80.00;;;;;;5063281;28;20041;-69
2023/05/30 06:38:45;;;;;;;9.60;2.50;;;20.80;80.00;;;;;;5061118;28;20406;-69
2023/05/30 06:41:11;;;;;;;8.07;2.58;;;20.70;79.20;;;;;;5053014;28;20068;-68
2023/05/30 06:43:37;;;;;;;7.95;2.63;;;21.00;80.00;;;;;;5053178;28;20049;-73
2023/05/30 06:46:04;;;;;;;9.60;2.58;;;20.70;79.80;;;;;;5056887;28;20049;-60
2023/05/30 06:48:29;;;;;;;7.18;2.80;;;20.70;79.80;;;;;;5070103;28;20048;-68
2023/05/30 06:50:55;;;;;;;7.53;2.35;;;20.50;79.70;;;;;;5073136;28;20036;-71
2023/05/30 06:53:22;;;;;;;6.78;1.98;;;;;;;;;;5072456;28;20091;-72
2023/05/30 06:55:48;;;;;;;7.10;2.40;;;;;;;;;;5053179;28;20043;-76
2023/05/30 06:58:14;;;;;;;6.63;2.22;;;;;;;;;;5052062;28;20045;-72
2023/05/30 07:00:40;;;;;;;9.50;2.63;;;20.80;79.30;;;;;;5055600;28;20037;-73
2023/05/30 07:03:06;;;;;;;5.65;2.13;;;20.60;79.80;;;;;;5056900;28;20551;-78
2023/05/30 07:05:32;;;;;;;5.97;2.25;;;;;;;;;;5065465;28;20103;-73
2023/05/30 07:07:58;;;;;;;5.15;1.80;;;21.00;79.90;;;;;;5071863;28;20040;-74
2023/05/30 07:10:24;;;;;;;5.80;2.08;;;20.80;79.90;;;;;;5066097;28;20544;-73
2023/05/30 07:12:52;;;;;;;6.82;2.08;;;20.70;80.00;;;;;;5064077;28;20044;-81
2023/05/30 07:15:18;;;;;;;6.13;2.58;;;21.00;79.40;;;;;;5071553;28;20105;-82
2023/05/30 07:17:43;;;;;;;7.30;2.30;;;20.70;79.80;;;;;;5068324;28;20049;-75
2023/05/30 07:20:09;;;;;;;8.02;2.17;;;20.90;80.00;;;;;;5060165;28;20045;-75
2023/05/30 07:22:37;;;;;;;5.93;2.20;;;21.10;80.10;;;;;;5054175;28;20053;-62
2023/05/30 07:25:04;;;;;;;5.80;2.05;;;20.70;78.00;;;;;;5056827;28;20052;-75
2023/05/30 07:27:31;;;;;;;6.50;2.15;;;20.90;80.00;;;;;;5064080;28;20482;-60
2023/05/30 07:29:57;;;;;;;7.50;2.13;;;;;;;;;;5058801;28;20127;-67
2023/05/30 07:32:22;;;;;;;4.93;2.10;;;20.90;77.40;;;;;;5055823;28;20211;-68
2023/05/30 07:34:48;;;;;;;5.05;1.90;;;21.20;76.40;;;;;;5067864;28;20562;-65
2023/05/30 07:37:14;;;;;;;5.35;1.88;;;;;;;;;;5056950;28;20390;-63
2023/05/30 07:39:40;;;;;;;4.95;1.85;;;21.20;79.90;;;;;;5054906;28;20516;-60
2023/05/30 07:42:07;;;;;;;4.40;1.60;;;21.00;79.80;;;;;;5064789;28;20045;-74
2023/05/30 07:44:33;;;;;;;5.55;1.88;;;21.20;79.90;;;;;;5055944;28;20131;-63
2023/05/30 07:46:59;;;;;;;4.85;1.73;;;;;;;;;;5063677;28;20130;-61
2023/05/30 07:49:25;;;;;;;5.00;1.80;;;21.20;80.00;;;;;;5059664;28;20059;-66
2023/05/30 07:51:50;;;;;;;3.90;1.80;;;21.30;80.00;;;;;;5072510;28;20048;-65
2023/05/30 07:54:16;;;;;;;5.55;1.90;;;21.10;79.80;;;;;;5068200;28;20051;-65
2023/05/30 07:56:42;;;;;;;4.13;1.63;;;21.20;79.90;;;;;;5052160;28;20045;-61
2023/05/30 07:59:08;;;;;;;3.65;1.45;;;21.50;79.80;;;;;;5053880;28;20052;-59
2023/05/30 08:01:33;;;;;;;4.20;1.65;;;21.40;79.70;;;;;;5071744;28;20047;-74
2023/05/30 08:04:00;;;;;;;5.95;1.55;;;;;;;;;;5056918;28;20059;-63
2023/05/30 08:06:26;;;;;;;8.73;1.55;;;21.50;79.60;;;;;;5055541;28;20395;-60
2023/05/30 08:08:52;;;;;;;3.22;1.40;;;;;;;;;;5056175;28;20049;-77
2023/05/30 08:11:19;;;;;;;4.05;1.70;;;;;;;;;;5069592;28;20393;-65
2023/05/30 08:13:45;;;;;;;5.90;1.63;;;21.50;79.60;;;;;;5070262;28;20082;-61
2023/05/30 08:16:11;;;;;;;3.28;1.67;;;21.40;79.50;;;;;;5051599;28;20065;-72
2023/05/30 08:18:37;;;;;;;5.25;1.40;;;21.50;79.50;;;;;;5055942;28;20048;-60
2023/05/30 08:21:03;;;;;;;3.78;1.42;;;21.50;79.50;;;;;;5062580;28;20036;-59
2023/05/30 08:23:29;;;;;;;4.00;1.50;;;21.30;79.30;;;;;;5062251;28;20068;-60
2023/05/30 08:25:56;;;;;;;3.75;1.30;;;21.50;79.60;;;;;;5056487;28;20045;-64
2023/05/30 08:28:23;;;;;;;3.42;1.30;;;21.60;79.50;;;;;;5069148;28;20101;-60
2023/05/30 08:30:48;;;;;;;2.70;1.40;;;21.50;79.20;;;;;;5063428;28;20049;-60
2023/05/30 08:33:18;;;;;;;2.55;1.10;;;21.60;74.40;;;;;;5055669;28;20045;-64
2023/05/30 08:35:44;;;;;;;2.95;1.42;;;21.50;79.00;;;;;;5072959;28;20044;-60
2023/05/30 08:38:10;;;;;;;4.90;2.08;;;21.80;79.20;;;;;;5061916;28;20044;-76
2023/05/30 08:40:36;;;;;;;3.30;1.30;;;;;;;;;;5063173;28;20075;-76
2023/05/30 08:43:02;;;;;;;3.05;1.27;;;;;;;;;;5069730;28;20048;-72
2023/05/30 08:45:28;;;;;;;3.65;1.27;;;21.80;78.90;;;;;;5054002;28;20102;-59
2023/05/30 08:47:57;;;;;;;2.25;1.20;;;21.60;78.80;;;;;;5075116;28;20052;-72
2023/05/30 08:50:23;;;;;;;3.22;1.10;;;;;;;;;;5061102;28;20059;-73
2023/05/30 08:52:51;;;;;;;3.22;1.30;;;21.90;78.80;;;;;;5072382;28;20094;-60
2023/05/30 08:55:24;;;;;;;2.58;1.05;;;21.90;76.60;;;;;;5057111;28;20053;-62
2023/05/30 08:57:50;;;;;;;;;;;22.10;76.10;;;;;;5073526;28;20049;-64
2023/05/30 09:00:17;;;;;;;3.53;1.33;;;22.10;78.70;;;;;;5063410;28;19921;-60
2023/05/30 09:02:46;;;;;;;2.97;1.25;;;22.00;78.70;;;;;;5070270;28;20049;-74
2023/05/30 09:05:15;;;;;;;5.90;1.60;;;21.80;75.40;;;;;;5056115;28;20055;-61
2023/05/30 09:07:41;;;;;;;4.55;1.20;;;22.00;78.90;;;;;;5038858;28;20052;-76
2023/05/30 09:10:07;;;;;;;6.47;1.70;;;;;;;;;;5053799;28;20059;-70
2023/05/30 09:12:33;;;;;;;3.88;1.27;;;21.80;78.90;;;;;;5042561;28;20052;-66
2023/05/30 09:14:59;;;;;;;5.80;1.25;;;22.00;79.10;;;;;;5033581;28;20475;-58
2023/05/30 09:17:25;;;;;;;4.32;1.45;;;21.70;78.90;;;;;;5045282;28;20037;-68
2023/05/30 09:19:51;;;;;;;4.22;1.33;;;22.00;79.00;;;;;;5033395;28;20080;-71
2023/05/30 09:22:17;;;;;;;2.17;1.20;;;21.90;79.00;;;;;;5034327;28;20053;-60
2023/05/30 09:24:55;;;;;;;5.43;1.70;;;21.70;78.80;;;;;;5017668;28;20045;-64
2023/05/30 09:27:20;;;;;;;3.08;1.40;;;22.10;78.80;;;;;;5046699;28;20045;-61
2023/05/30 09:29:46;;;;;;;5.43;1.60;;;22.00;78.60;;;;;;5034258;28;20064;-63
2023/05/30 09:32:12;;;;;;;4.47;1.38;;;21.90;78.50;;;;;;5047989;28;20045;-66
2023/05/30 09:34:38;;;;;;;4.88;1.13;;;22.10;78.60;;;;;;5054087;28;20053;-72
2023/05/30 09:37:04;;;;;;;2.75;1.10;;;22.20;74.70;;;;;;5052249;28;20490;-66
2023/05/30 09:39:32;;;;;;;3.30;1.17;;;22.00;78.50;;;;;;5041000;28;20053;-71
2023/05/30 09:41:58;;;;;;;4.82;1.35;;;22.10;78.50;;;;;;5046064;28;20087;-72
2023/05/30 09:44:24;;;;;;;7.15;1.35;;;21.90;78.40;;;;;;5041294;28;20096;-70
2023/05/30 09:46:55;;;;;;;2.53;1.08;;;21.90;77.50;;;;;;5037710;28;20045;-71
2023/05/30 09:49:21;;;;;;;3.23;1.20;;;22.00;78.30;;;;;;5051382;28;20052;-71
2023/05/30 09:51:48;;;;;;;1.65;0.88;;;22.00;78.20;;;;;;5053150;28;20045;-71
2023/05/30 09:54:14;;;;;;;5.53;1.27;;;22.00;78.20;;;;;;5051866;28;20046;-63
2023/05/30 09:56:40;;;;;;;3.28;1.02;;;22.20;76.70;;;;;;5051247;28;20052;-62
2023/05/30 09:59:13;;;;;;;3.67;1.17;;;21.80;73.60;;;;;;5039289;28;20069;-64
2023/05/30 10:01:48;;;;;;;4.80;1.30;;;22.30;78.40;;;;;;5033995;28;20038;-64
2023/05/30 10:04:20;;;;;;;2.92;1.30;;;22.00;75.10;;;;;;5032219;28;20094;-65
2023/05/30 10:06:53;;;;;;;3.47;1.25;;;22.20;78.30;;;;;;5033806;28;20041;-66
2023/05/30 10:09:22;;;;;;;2.45;1.20;;;22.20;78.30;;;;;;5040691;28;20098;-70
2023/05/30 10:11:48;;;;;;;2.08;0.93;;;21.90;78.10;;;;;;5042249;28;20395;-63
2023/05/30 10:14:14;;;;;;;2.65;1.08;;;22.10;78.30;;;;;;5015300;28;20502;-59
2023/05/30 10:16:48;;;;;;;1.67;0.98;;;22.10;73.60;;;;;;5049792;28;20052;-69
2023/05/30 10:19:17;;;;;;;1.65;1.13;;;22.10;75.50;;;;;;5039955;28;20052;-62
2023/05/30 10:21:43;;;;;;;1.83;1.05;;;22.20;78.20;;;;;;5050302;28;20045;-64
2023/05/30 10:24:10;;;;;;;1.65;0.95;;;22.20;78.20;;;;;;5048038;28;20076;-70
2023/05/30 10:26:36;;;;;;;2.20;1.13;;;;;;;;;;5039321;28;20053;-66
2023/05/30 10:29:05;;;;;;;2.25;1.08;;;22.30;78.20;;;;;;5050795;28;20418;-62
2023/05/30 10:31:31;;;;;;;2.90;1.20;;;22.20;78.20;;;;;;5039181;28;20056;-63
2023/05/30 10:33:57;;;;;;;1.90;0.88;;;22.10;78.30;;;;;;5047663;28;20418;-61
2023/05/30 10:36:22;;;;;;;2.95;1.10;;;22.20;75.70;;;;;;5044506;28;20041;-69
2023/05/30 10:39:08;;;;;;;3.50;1.27;;;22.20;78.60;;;;;;5053668;28;20398;-60
2023/05/30 10:41:58;;;;;;;2.15;1.00;;;22.10;77.50;;;;;;5037736;28;20044;-70
2023/05/30 10:45:02;;;;;;;2.65;1.10;;;22.20;78.50;;;;;;5051071;28;20047;-61
2023/05/30 10:47:37;;;;;;;2.03;1.00;;;21.90;76.70;;;;;;5040104;28;20509;-71
2023/05/30 10:50:07;;;;;;;2.30;0.95;;;22.00;78.40;;;;;;5038232;28;20667;-70
2023/05/30 10:52:33;;;;;;;2.30;1.05;;;22.40;78.70;;;;;;5029508;28;20048;-62
2023/05/30 10:55:00;;;;;;;1.55;1.00;;;22.30;76.60;;;;;;5036190;28;20120;-61
2023/05/30 10:57:28;;;;;;;1.83;1.00;;;22.10;78.50;;;;;;5045051;28;20045;-65
2023/05/30 10:59:55;;;;;;;2.28;0.93;;;22.20;78.50;;;;;;5045168;28;20056;-72
2023/05/30 11:02:33;;;;;;;2.55;1.02;;;22.30;78.70;;;;;;5036405;28;20399;-61
2023/05/30 11:05:03;;;;;;;3.42;1.30;;;22.10;78.50;;;;;;5033354;28;20182;-70
2023/05/30 11:07:29;;;;;;;1.30;0.88;;;22.20;78.60;;;;;;5050060;28;20079;-70
2023/05/30 11:10:06;;;;;;;1.75;1.05;;;21.90;78.30;;;;;;5044304;28;20076;-62
2023/05/30 11:12:31;;;;;;;1.95;1.40;;;22.00;78.40;;;;;;5046623;28;20049;-60
2023/05/30 11:15:00;;;;;;;1.83;1.13;;;21.90;73.80;;;;;;5052001;28;20052;-65
2023/05/30 11:17:30;;;;;;;3.83;1.20;;;22.10;78.30;;;;;;5045968;28;20045;-69
2023/05/30 11:20:26;;;;;;;2.22;1.13;;;22.10;78.60;;;;;;5032822;28;20033;-62
2023/05/30 11:23:01;;;;;;;3.33;1.27;;;22.00;78.50;;;;;;5059225;28;20056;-60
2023/05/30 11:25:29;;;;;;;4.28;1.42;;;21.70;77.40;;;;;;5052004;28;20049;-61
2023/05/30 11:28:03;;;;;;;1.95;1.00;;;22.20;78.70;;;;;;5035060;28;20556;-60
2023/05/30 11:30:37;;;;;;;1.58;1.00;;;22.00;78.70;;;;;;5032962;28;20112;-62
2023/05/30 11:33:10;;;;;;;2.25;0.80;;;21.90;74.00;;;;;;5045292;28;20398;-63
2023/05/30 11:35:37;;;;;;;1.48;0.80;;;;;;;;;;5051229;28;20080;-63
2023/05/30 11:38:02;;;;;;;1.70;0.90;;;21.90;78.80;;;;;;5035129;28;20643;-70
2023/05/30 11:40:28;;;;;;;2.30;1.23;;;21.60;78.80;;;;;;5048802;28;20045;-73
2023/05/30 11:42:54;;;;;;;2.20;1.20;;;22.00;79.00;;;;;;5065067;28;20059;-63
2023/05/30 11:45:28;;;;;;;5.03;1.30;;;22.00;79.10;;;;;;5044800;28;20049;-71
2023/05/30 11:47:54;;;;;;;13.73;2.45;;;22.00;79.10;;;;;;5044321;28;20056;-71
2023/05/30 11:50:21;;;;;;;13.23;2.30;;;22.00;79.10;;;;;;5049646;28;20045;-70
2023/05/30 11:52:46;;;;;;;13.48;2.22;;;21.90;79.00;;;;;;5055434;28;20052;-70
2023/05/30 11:55:12;;;;;;;12.80;1.70;;;22.00;79.10;;;;;;5056084;28;20052;-63
2023/05/30 11:57:38;;;;;;;6.35;1.77;;;22.10;78.90;;;;;;5053671;28;20079;-65
2023/05/30 12:00:10;;;;;;;9.85;2.00;;;21.90;78.80;;;;;;5040773;28;20061;-70
2023/05/30 12:02:36;;;;;;;9.37;2.13;;;;;;;;;;5055254;28;20368;-69
2023/05/30 12:05:04;;;;;;;7.47;1.77;;;22.10;78.80;;;;;;5049188;28;20407;-61
2023/05/30 12:07:31;;;;;;;11.52;1.70;;;21.90;78.60;;;;;;5036694;28;20129;-65
2023/05/30 12:09:57;;;;;;;6.30;2.08;;;22.20;79.00;;;;;;5036384;28;20049;-62
2023/05/30 12:12:23;;;;;;;9.43;1.80;;;22.30;79.00;;;;;;5044129;28;20041;-64
2023/05/30 12:14:52;;;;;;;5.45;1.50;;;22.40;79.10;;;;;;5048816;28;20041;-78
2023/05/30 12:17:20;;;;;;;4.03;1.33;;;22.30;79.10;;;;;;5036458;28;20041;-65
2023/05/30 12:19:46;;;;;;;6.93;1.60;;;22.30;79.20;;;;;;5044671;28;20178;-64
2023/05/30 12:22:12;;;;;;;7.60;1.65;;;22.40;76.60;;;;;;5040211;28;20194;-65
2023/05/30 12:24:38;;;;;;;14.32;2.67;;;22.40;79.40;;;;;;5042489;28;20056;-77
2023/05/30 12:27:05;;;;;;;8.98;1.63;;;22.30;79.50;;;;;;5047454;28;20041;-75
2023/05/30 12:29:34;;;;;;;6.63;1.50;;;22.20;79.00;;;;;;5055744;28;20057;-72
2023/05/30 12:32:03;;;;;;;4.63;1.40;;;22.40;79.60;;;;;;5054976;28;20041;-72
2023/05/30 12:34:43;;;;;;;7.93;1.92;;;22.30;79.40;;;;;;5042893;28;20068;-76
2023/05/30 12:37:10;;;;;;;6.38;1.70;;;22.20;79.50;;;;;;5041724;28;20041;-72
2023/05/30 12:39:52;;;;;;;5.32;1.50;;;22.20;76.80;;;;;;5047541;28;20041;-72
2023/05/30 12:42:22;;;;;;;5.63;1.20;;;22.00;76.80;;;;;;5043591;28;20052;-77
2023/05/30 12:44:48;;;;;;;6.95;1.50;;;22.40;75.60;;;;;;5040861;28;20060;-67
2023/05/30 12:47:15;;;;;;;4.45;1.50;;;22.30;79.50;;;;;;5036026;28;20037;-78
2023/05/30 12:49:41;;;;;;;5.18;1.50;;;22.30;79.40;;;;;;5048678;28;20043;-74
2023/05/30 12:52:08;;;;;;;6.25;1.40;;;22.40;78.20;;;;;;5046188;28;20041;-76
2023/05/30 12:54:35;;;;;;;5.60;1.45;;;22.20;79.30;;;;;;5036208;28;20045;-74
2023/05/30 12:57:01;;;;;;;4.18;1.30;;;22.50;79.30;;;;;;5042997;28;20039;-75
2023/05/30 12:59:27;;;;;;;5.90;1.50;;;22.30;79.20;;;;;;5051897;28;20063;-77